Página principal
METAR-TAF:

METAR-TAF

Aeroportos :

Helsínquia, Finlândia

Aeroporto de Helsínquia-Vantaa

latitude: 60-19N, longitude: 024-58E, altura: 51 m

Observação actual do tempo

O boletim foi feito há 11 minutos, às 13:20 UTC
Vento 2 kt de oeste
Temperatura -8°C
Humidade 73%
Pressão 1027 hPa
Visibilidade 10 km ou mais
Poucas nuvensa uma altura de 1500 ft

METAR: EFHK 211320Z 28002KT 9999 FEW015 M08/M12 Q1027 NOSIG

Hora: 15:31 (13:31 UTC)

Previsão

O boletim foi feito há 23 horas e 0 minutos, às 14:31 UTC
Previsão válida de 20 às 15 UTC a 21 às 15 UTC
Vento 5 kt de norte
Visibilidade 10 km ou mais
sem nuvens abaixo de 1500 metros e sem cumulonimbus
Probabilidade 30% :
Temporariamente
de 21 às 03 UTC a 21 às 08 UTC
Visibilidade: 5000 m
neve fraca

TAF: EFHK 201431Z 2015/2115 01005KT CAVOK PROB30 TEMPO 2103/2108 5000 -SN

Observações e previsões do tempo de mais de 4000 aeroportos (mensagens METAR e TAF).

As estações disponíveis são os pontos amarelos e vermelhos sobre o mapa.

Mova o rato sobre o mapa para ver o nome da estação.

Depois clique no ponto para visualizar as observações e previsões meteorológicas.

Para alterar o mapa : clique nos botões verdes com uma cruz preta para aumentar o zoom; no botão verde com uma pitada de zoom; ou nas setas verdes para mapas adjacentes.


METAR-TAF: